createdAt,value
2023-04-16T00:01:56.403Z,3.30
2023-04-16T00:04:23.320Z,4.28
2023-04-16T00:06:53.474Z,3.38
2023-04-16T00:09:20.348Z,4.15
2023-04-16T00:11:47.312Z,4.45
2023-04-16T00:14:14.517Z,5.50
2023-04-16T00:16:43.368Z,5.35
2023-04-16T00:19:10.639Z,7.93
2023-04-16T00:21:40.151Z,5.88
2023-04-16T00:24:06.840Z,5.45
2023-04-16T00:26:33.559Z,6.63
2023-04-16T00:29:02.533Z,5.53
2023-04-16T00:31:30.789Z,5.55
2023-04-16T00:33:59.297Z,8.85
2023-04-16T00:36:28.445Z,6.63
2023-04-16T00:38:56.050Z,7.43
2023-04-16T00:41:24.273Z,5.05
2023-04-16T00:43:51.567Z,5.63
2023-04-16T00:46:22.246Z,7.53
2023-04-16T00:48:51.109Z,6.05
2023-04-16T00:51:20.420Z,7.18
2023-04-16T00:53:47.701Z,5.50
2023-04-16T00:56:18.029Z,5.70
2023-04-16T00:58:45.650Z,5.70
2023-04-16T01:01:14.504Z,5.30
2023-04-16T01:03:48.137Z,4.32
2023-04-16T01:06:17.574Z,5.55
2023-04-16T01:08:45.121Z,6.70
2023-04-16T01:11:12.200Z,6.93
2023-04-16T01:13:39.833Z,6.50
2023-04-16T01:16:09.536Z,6.28
2023-04-16T01:18:37.742Z,6.78
2023-04-16T01:21:05.489Z,7.15
2023-04-16T01:23:34.755Z,5.45
2023-04-16T01:26:05.066Z,6.75
2023-04-16T01:28:32.004Z,4.70
2023-04-16T01:30:58.699Z,4.68
2023-04-16T01:33:48.663Z,3.55
2023-04-16T01:36:17.045Z,6.28
2023-04-16T01:38:47.323Z,5.07
2023-04-16T01:41:14.554Z,3.80
2023-04-16T01:43:44.285Z,4.85
2023-04-16T01:46:32.039Z,4.32
2023-04-16T01:48:59.054Z,4.25
2023-04-16T01:51:25.955Z,5.25
2023-04-16T01:53:52.650Z,5.95
2023-04-16T01:56:19.367Z,6.63
2023-04-16T01:58:47.433Z,5.07
2023-04-16T02:01:16.184Z,4.10
2023-04-16T02:03:44.172Z,6.22
2023-04-16T02:06:11.021Z,4.70
2023-04-16T02:08:37.792Z,4.13
2023-04-16T02:11:04.424Z,5.05
2023-04-16T02:13:31.374Z,4.93
2023-04-16T02:15:58.311Z,4.85
2023-04-16T02:18:46.205Z,5.43
2023-04-16T02:21:14.978Z,4.68
2023-04-16T02:23:42.610Z,5.18
2023-04-16T02:26:09.449Z,4.75
2023-04-16T02:28:37.643Z,5.47
2023-04-16T02:31:04.888Z,4.95
2023-04-16T02:33:39.818Z,4.75
2023-04-16T02:36:07.286Z,5.95
2023-04-16T02:38:33.942Z,5.93
2023-04-16T02:41:01.221Z,6.40
2023-04-16T02:43:28.526Z,5.57
2023-04-16T02:45:59.478Z,6.05
2023-04-16T02:48:28.523Z,6.38
2023-04-16T02:50:55.276Z,6.70
2023-04-16T02:53:21.999Z,5.82
2023-04-16T02:55:52.958Z,6.20
2023-04-16T02:58:20.937Z,5.13
2023-04-16T03:00:47.975Z,5.88
2023-04-16T03:03:16.772Z,7.93
2023-04-16T03:05:44.162Z,5.75
2023-04-16T03:08:11.269Z,5.47
2023-04-16T03:10:37.930Z,5.70
2023-04-16T03:13:05.028Z,4.93
2023-04-16T03:15:31.906Z,6.82
2023-04-16T03:17:59.301Z,6.13
2023-04-16T03:20:26.189Z,4.90
2023-04-16T03:22:53.349Z,6.05
2023-04-16T03:25:20.434Z,5.68
2023-04-16T03:27:47.049Z,6.03
2023-04-16T03:30:15.499Z,6.88
2023-04-16T03:32:44.111Z,6.30
2023-04-16T03:35:11.666Z,7.32
2023-04-16T03:37:39.063Z,6.40
2023-04-16T03:40:07.226Z,7.13
2023-04-16T03:42:34.328Z,7.78
2023-04-16T03:45:02.901Z,7.15
2023-04-16T03:47:30.435Z,8.27
2023-04-16T03:50:01.083Z,7.40
2023-04-16T03:52:28.390Z,8.10
2023-04-16T03:54:56.890Z,7.07
2023-04-16T03:57:30.074Z,9.45
2023-04-16T04:00:02.961Z,8.63
2023-04-16T04:02:41.283Z,10.10
2023-04-16T04:05:14.909Z,9.40
2023-04-16T04:07:42.416Z,9.40
2023-04-16T04:10:09.617Z,11.52
2023-04-16T04:12:39.596Z,9.73
2023-04-16T04:15:07.509Z,10.48
2023-04-16T04:17:34.122Z,10.32
2023-04-16T04:20:01.889Z,9.27
2023-04-16T04:22:31.788Z,10.07
2023-04-16T04:24:58.463Z,9.70
2023-04-16T04:27:27.365Z,9.02
2023-04-16T04:29:54.087Z,8.57
2023-04-16T04:32:22.081Z,8.30
2023-04-16T04:34:49.252Z,8.43
2023-04-16T04:37:15.966Z,7.80
2023-04-16T04:39:43.842Z,7.72
2023-04-16T04:42:11.564Z,9.00
2023-04-16T04:44:38.672Z,8.57
2023-04-16T04:47:05.406Z,8.27
2023-04-16T04:49:32.035Z,8.27
2023-04-16T04:51:58.623Z,6.85
2023-04-16T04:54:25.302Z,6.75
2023-04-16T04:56:53.444Z,8.95
2023-04-16T04:59:21.004Z,7.38
2023-04-16T05:01:47.877Z,7.32
2023-04-16T05:04:14.574Z,8.27
2023-04-16T05:06:41.517Z,8.02
2023-04-16T05:09:11.567Z,7.55
2023-04-16T05:11:43.195Z,8.15
2023-04-16T05:14:10.102Z,8.43
2023-04-16T05:16:37.765Z,7.60
2023-04-16T05:19:04.615Z,8.02
2023-04-16T05:21:34.170Z,8.85
2023-04-16T05:24:01.264Z,7.50
2023-04-16T05:26:28.051Z,8.05
2023-04-16T05:28:54.587Z,8.05
2023-04-16T05:31:21.434Z,6.60
2023-04-16T05:33:48.059Z,7.60
2023-04-16T05:36:14.659Z,7.93
2023-04-16T05:38:41.659Z,8.07
2023-04-16T05:41:08.259Z,6.47
2023-04-16T05:43:34.918Z,6.38
2023-04-16T05:46:01.470Z,6.68
2023-04-16T05:48:28.225Z,6.80
2023-04-16T05:50:55.123Z,6.28
2023-04-16T05:53:21.902Z,6.05
2023-04-16T05:55:48.565Z,6.35
2023-04-16T05:58:16.750Z,6.75
2023-04-16T06:00:43.319Z,5.93
2023-04-16T06:03:10.048Z,7.22
2023-04-16T06:05:36.808Z,6.70
2023-04-16T06:08:06.540Z,6.93
2023-04-16T06:10:33.080Z,6.60
2023-04-16T06:12:59.966Z,7.13
2023-04-16T06:15:26.520Z,7.57
2023-04-16T06:17:53.211Z,7.65
2023-04-16T06:20:21.539Z,7.93
2023-04-16T06:22:48.132Z,7.15
2023-04-16T06:25:16.865Z,7.25
2023-04-16T06:27:44.676Z,7.93
2023-04-16T06:30:13.112Z,6.13
2023-04-16T06:32:39.968Z,7.60
2023-04-16T06:35:07.042Z,7.88
2023-04-16T06:37:33.894Z,7.63
2023-04-16T06:40:00.931Z,10.18
2023-04-16T06:42:28.444Z,7.47
2023-04-16T06:44:54.981Z,7.68
2023-04-16T06:47:21.725Z,8.38
2023-04-16T06:49:48.696Z,8.50
2023-04-16T06:52:15.576Z,8.13
2023-04-16T06:54:42.187Z,7.82
2023-04-16T06:57:08.782Z,7.97
2023-04-16T06:59:35.303Z,8.18
2023-04-16T07:02:02.179Z,8.32
2023-04-16T07:04:28.877Z,9.02
2023-04-16T07:06:55.498Z,8.35
2023-04-16T07:09:22.026Z,8.30
2023-04-16T07:11:50.229Z,7.90
2023-04-16T07:14:17.166Z,8.65
2023-04-16T07:16:43.896Z,9.07
2023-04-16T07:19:10.953Z,9.27
2023-04-16T07:21:37.872Z,8.40
2023-04-16T07:24:04.568Z,8.95
2023-04-16T07:26:31.165Z,8.88
2023-04-16T07:28:57.632Z,8.30
2023-04-16T07:31:24.202Z,9.00
2023-04-16T07:33:51.005Z,8.73
2023-04-16T07:36:17.610Z,7.88
2023-04-16T07:38:44.200Z,10.10
2023-04-16T07:41:10.743Z,9.35
2023-04-16T07:43:37.463Z,9.38
2023-04-16T07:46:04.181Z,9.18
2023-04-16T07:48:31.062Z,8.27
2023-04-16T07:50:57.928Z,9.10
2023-04-16T07:53:24.506Z,8.70
2023-04-16T07:55:51.128Z,8.60
2023-04-16T07:58:17.765Z,8.02
2023-04-16T08:00:45.672Z,9.10
2023-04-16T08:03:13.021Z,9.80
2023-04-16T08:05:39.807Z,8.90
2023-04-16T08:08:06.437Z,10.07
2023-04-16T08:10:33.515Z,8.65
2023-04-16T08:13:03.196Z,9.23
2023-04-16T08:15:30.140Z,9.10
2023-04-16T08:17:57.092Z,9.00
2023-04-16T08:20:23.880Z,8.77
2023-04-16T08:22:50.516Z,9.68
2023-04-16T08:25:17.360Z,8.95
2023-04-16T08:27:43.931Z,10.15
2023-04-16T08:30:10.995Z,10.25
2023-04-16T08:32:37.952Z,9.35
2023-04-16T08:35:05.440Z,10.43
2023-04-16T08:37:31.984Z,10.10
2023-04-16T08:40:01.927Z,9.48
2023-04-16T08:42:36.981Z,9.85
2023-04-16T08:45:09.030Z,8.73
2023-04-16T08:47:39.602Z,9.13
2023-04-16T08:50:06.921Z,9.48
2023-04-16T08:52:37.750Z,9.00
2023-04-16T08:55:14.763Z,9.73
2023-04-16T08:57:50.547Z,8.88
2023-04-16T09:00:18.203Z,8.60
2023-04-16T09:02:45.437Z,8.77
2023-04-16T09:05:20.721Z,8.10
2023-04-16T09:07:51.242Z,8.93
2023-04-16T09:10:18.114Z,8.48
2023-04-16T09:12:44.866Z,9.10
2023-04-16T09:15:12.600Z,8.80
2023-04-16T09:17:40.064Z,9.85
2023-04-16T09:20:09.021Z,9.15
2023-04-16T09:22:36.717Z,9.68
2023-04-16T09:25:04.186Z,10.18
2023-04-16T09:27:31.856Z,9.05
2023-04-16T09:29:58.815Z,10.90
2023-04-16T09:32:27.340Z,11.88
2023-04-16T09:34:53.896Z,9.40
2023-04-16T09:37:20.566Z,9.68
2023-04-16T09:39:59.182Z,7.82
2023-04-16T09:42:28.079Z,9.90
2023-04-16T09:44:57.884Z,9.27
2023-04-16T09:47:39.155Z,10.23
2023-04-16T09:50:06.909Z,10.48
2023-04-16T09:52:36.866Z,9.35
2023-04-16T09:55:03.774Z,9.88
2023-04-16T09:57:30.555Z,10.05
2023-04-16T10:00:11.960Z,9.63
2023-04-16T10:02:42.553Z,10.25
2023-04-16T10:05:10.042Z,10.00
2023-04-16T10:07:37.508Z,10.40
2023-04-16T10:10:05.019Z,10.60
2023-04-16T10:12:33.005Z,9.40
2023-04-16T10:15:00.203Z,11.82
2023-04-16T10:17:32.452Z,10.40
2023-04-16T10:20:03.558Z,10.25
2023-04-16T10:22:30.329Z,10.40
2023-04-16T10:24:57.655Z,10.35
2023-04-16T10:27:26.633Z,10.80
2023-04-16T10:29:53.599Z,10.07
2023-04-16T10:32:21.915Z,9.55
2023-04-16T10:34:49.119Z,9.93
2023-04-16T10:37:18.058Z,10.07
2023-04-16T10:39:45.028Z,10.02
2023-04-16T10:42:13.068Z,9.45
2023-04-16T10:44:43.637Z,9.85
2023-04-16T10:47:13.216Z,10.45
2023-04-16T10:49:41.123Z,9.68
2023-04-16T10:52:17.265Z,9.52
2023-04-16T10:54:44.494Z,9.50
2023-04-16T10:57:17.809Z,8.77
2023-04-16T10:59:45.905Z,9.45
2023-04-16T11:02:21.294Z,8.70
2023-04-16T11:04:50.023Z,9.15
2023-04-16T11:07:21.711Z,10.63
2023-04-16T11:10:04.179Z,10.35
2023-04-16T11:12:39.200Z,8.98
2023-04-16T11:15:13.432Z,9.68
2023-04-16T11:17:41.459Z,8.90
2023-04-16T11:20:19.167Z,9.80
2023-04-16T11:22:55.430Z,9.65
2023-04-16T11:25:22.747Z,10.45
2023-04-16T11:27:50.574Z,10.15
2023-04-16T11:30:17.701Z,10.55
2023-04-16T11:32:45.261Z,10.52
2023-04-16T11:35:17.408Z,10.13
2023-04-16T11:37:44.970Z,10.48
2023-04-16T11:40:12.660Z,10.23
2023-04-16T11:42:41.328Z,11.50
2023-04-16T11:45:10.041Z,10.40
2023-04-16T11:47:47.522Z,10.40
2023-04-16T11:50:17.183Z,11.23
2023-04-16T11:52:43.921Z,11.10
2023-04-16T11:55:10.699Z,9.95
2023-04-16T11:57:38.529Z,9.50
2023-04-16T12:00:07.442Z,10.07
2023-04-16T12:02:44.432Z,10.10
2023-04-16T12:05:38.815Z,10.40
2023-04-16T12:08:07.868Z,10.30
2023-04-16T12:10:38.392Z,9.38
2023-04-16T12:13:16.221Z,9.90
2023-04-16T12:15:47.009Z,10.48
2023-04-16T12:18:15.007Z,11.90
2023-04-16T12:20:43.088Z,11.43
2023-04-16T12:23:25.271Z,9.98
2023-04-16T12:25:52.369Z,10.15
2023-04-16T12:28:41.060Z,10.25
2023-04-16T12:31:10.789Z,11.05
2023-04-16T12:33:37.638Z,10.38
2023-04-16T12:36:18.605Z,10.80
2023-04-16T12:38:45.598Z,11.63
2023-04-16T12:41:12.228Z,9.77
2023-04-16T12:43:39.228Z,10.57
2023-04-16T12:46:07.004Z,14.40
2023-04-16T12:48:33.842Z,10.38
2023-04-16T12:51:00.433Z,11.27
2023-04-16T12:53:28.516Z,11.93
2023-04-16T12:56:01.189Z,11.82
2023-04-16T12:58:27.882Z,11.38
2023-04-16T13:00:54.575Z,11.82
2023-04-16T13:03:23.519Z,11.25
2023-04-16T13:05:57.945Z,11.57
2023-04-16T13:08:27.952Z,13.02
2023-04-16T13:10:54.762Z,12.75
2023-04-16T13:13:21.936Z,11.40
2023-04-16T13:15:55.237Z,12.43
2023-04-16T13:18:23.105Z,11.15
2023-04-16T13:20:50.265Z,11.00
2023-04-16T13:23:17.465Z,12.85
2023-04-16T13:25:44.394Z,12.30
2023-04-16T13:28:12.930Z,12.35
2023-04-16T13:30:40.962Z,11.85
2023-04-16T13:33:08.381Z,11.27
2023-04-16T13:35:35.806Z,11.25
2023-04-16T13:38:02.515Z,11.60
2023-04-16T13:40:29.903Z,12.25
2023-04-16T13:42:56.903Z,10.98
2023-04-16T13:45:23.563Z,11.18
2023-04-16T13:47:54.668Z,12.07
2023-04-16T13:50:22.288Z,12.00
2023-04-16T13:52:52.062Z,10.82
2023-04-16T13:55:22.020Z,11.68
2023-04-16T13:57:53.538Z,12.15
2023-04-16T14:00:42.767Z,13.02
2023-04-16T14:03:09.888Z,13.10
2023-04-16T14:05:39.606Z,12.82
2023-04-16T14:08:06.976Z,14.32
2023-04-16T14:10:33.816Z,11.38
2023-04-16T14:13:03.783Z,12.40
2023-04-16T14:15:31.354Z,11.95
2023-04-16T14:17:58.186Z,13.07
2023-04-16T14:20:24.929Z,11.57
2023-04-16T14:22:54.025Z,12.18
2023-04-16T14:25:22.096Z,11.63
2023-04-16T14:27:51.520Z,12.40
2023-04-16T14:30:22.372Z,12.05
2023-04-16T14:32:55.247Z,12.63
2023-04-16T14:35:22.034Z,12.32
2023-04-16T14:37:49.138Z,13.90
2023-04-16T14:40:16.883Z,12.63
2023-04-16T14:42:45.694Z,13.07
2023-04-16T14:45:12.681Z,12.80
2023-04-16T14:47:45.904Z,12.95
2023-04-16T14:50:13.172Z,13.57
2023-04-16T14:52:39.853Z,13.23
2023-04-16T14:55:07.107Z,12.88
2023-04-16T14:57:34.107Z,13.23
2023-04-16T15:00:01.276Z,11.68
2023-04-16T15:02:28.227Z,12.38
2023-04-16T15:04:58.540Z,12.75
2023-04-16T15:07:26.517Z,12.65
2023-04-16T15:09:53.193Z,13.57
2023-04-16T15:12:20.097Z,13.48
2023-04-16T15:14:46.684Z,13.70
2023-04-16T15:17:13.655Z,13.05
2023-04-16T15:19:40.630Z,13.13
2023-04-16T15:22:07.245Z,14.52
2023-04-16T15:24:33.859Z,14.48
2023-04-16T15:27:02.357Z,14.23
2023-04-16T15:29:29.077Z,14.63
2023-04-16T15:31:55.936Z,13.73
2023-04-16T15:34:27.364Z,15.23
2023-04-16T15:36:54.379Z,14.70
2023-04-16T15:39:21.144Z,13.35
2023-04-16T15:42:00.527Z,14.00
2023-04-16T15:44:28.383Z,13.40
2023-04-16T15:47:06.579Z,15.13
2023-04-16T15:49:35.057Z,16.17
2023-04-16T15:52:02.079Z,13.90
2023-04-16T15:54:29.644Z,13.48
2023-04-16T15:56:56.868Z,13.88
2023-04-16T15:59:23.456Z,15.00
2023-04-16T16:01:51.334Z,14.55
2023-04-16T16:04:19.032Z,15.07
2023-04-16T16:06:46.656Z,16.35
2023-04-16T16:09:14.663Z,17.55
2023-04-16T16:11:42.077Z,18.10
2023-04-16T16:14:08.670Z,16.65
2023-04-16T16:16:35.600Z,16.95
2023-04-16T16:19:02.374Z,18.08
2023-04-16T16:21:32.667Z,15.45
2023-04-16T16:23:59.468Z,16.73
2023-04-16T16:26:26.288Z,17.52
2023-04-16T16:28:53.331Z,16.67
2023-04-16T16:31:20.459Z,17.38
2023-04-16T16:33:47.829Z,15.77
2023-04-16T16:36:24.785Z,16.77
2023-04-16T16:38:55.640Z,15.88
2023-04-16T16:41:22.785Z,15.13
2023-04-16T16:43:50.555Z,16.67
2023-04-16T16:46:17.221Z,16.63
2023-04-16T16:48:44.407Z,16.98
2023-04-16T16:51:13.070Z,15.68
2023-04-16T16:53:40.012Z,17.15
2023-04-16T16:56:07.710Z,16.67
2023-04-16T16:58:34.341Z,14.68
2023-04-16T17:01:01.507Z,13.55
2023-04-16T17:03:28.308Z,14.18
2023-04-16T17:05:55.422Z,15.85
2023-04-16T17:08:22.131Z,13.95
2023-04-16T17:10:48.675Z,14.82
2023-04-16T17:13:19.658Z,12.43
2023-04-16T17:15:46.958Z,12.70
2023-04-16T17:18:14.192Z,13.93
2023-04-16T17:20:41.018Z,14.00
2023-04-16T17:23:07.810Z,15.52
2023-04-16T17:25:34.542Z,13.90
2023-04-16T17:28:01.519Z,15.95
2023-04-16T17:30:30.215Z,15.02
2023-04-16T17:32:56.992Z,16.17
2023-04-16T17:35:24.460Z,14.35
2023-04-16T17:37:51.651Z,14.98
2023-04-16T17:40:21.250Z,15.18
2023-04-16T17:42:48.852Z,15.30
2023-04-16T17:45:15.865Z,15.05
2023-04-16T17:47:44.426Z,13.20
2023-04-16T17:50:11.917Z,14.32
2023-04-16T17:52:41.803Z,15.57
2023-04-16T17:55:09.012Z,16.13
2023-04-16T17:57:35.617Z,16.65
2023-04-16T18:00:12.600Z,14.57
2023-04-16T18:02:43.287Z,16.15
2023-04-16T18:05:10.399Z,14.73
2023-04-16T18:07:39.137Z,14.57
2023-04-16T18:10:07.057Z,16.40
2023-04-16T18:12:33.774Z,16.92
2023-04-16T18:15:00.721Z,17.45
2023-04-16T18:17:27.564Z,16.27
2023-04-16T18:19:54.428Z,16.35
2023-04-16T18:22:21.049Z,15.40
2023-04-16T18:24:47.985Z,15.45
2023-04-16T18:27:14.651Z,16.10
2023-04-16T18:29:45.396Z,14.27
2023-04-16T18:32:12.515Z,15.23
2023-04-16T18:34:39.505Z,14.38
2023-04-16T18:37:07.014Z,15.18
2023-04-16T18:39:34.020Z,15.93
2023-04-16T18:42:03.931Z,15.43
2023-04-16T18:44:33.653Z,15.13
2023-04-16T18:47:00.766Z,15.73
2023-04-16T18:49:27.506Z,15.90
2023-04-16T18:51:57.180Z,16.17
2023-04-16T18:54:23.825Z,16.88
2023-04-16T18:56:50.429Z,16.60
2023-04-16T18:59:17.096Z,15.70
2023-04-16T19:01:43.783Z,14.90
2023-04-16T19:04:11.015Z,18.73
2023-04-16T19:06:38.029Z,16.98
2023-04-16T19:09:04.578Z,16.58
2023-04-16T19:11:31.237Z,17.10
2023-04-16T19:13:58.119Z,15.38
2023-04-16T19:16:24.825Z,16.98
2023-04-16T19:18:51.486Z,16.75
2023-04-16T19:21:18.598Z,18.70
2023-04-16T19:23:45.369Z,17.35
2023-04-16T19:26:12.202Z,16.63
2023-04-16T19:28:39.888Z,16.98
2023-04-16T19:31:06.814Z,17.33
2023-04-16T19:33:33.434Z,18.63
2023-04-16T19:36:00.594Z,17.67
2023-04-16T19:38:27.650Z,18.90
2023-04-16T19:40:55.501Z,16.42
2023-04-16T19:43:22.131Z,16.35
2023-04-16T19:45:53.676Z,15.80
2023-04-16T19:48:21.416Z,17.65
2023-04-16T19:50:56.313Z,18.63
2023-04-16T19:53:24.435Z,18.27
2023-04-16T19:55:51.005Z,18.23
2023-04-16T19:58:17.726Z,18.92
2023-04-16T20:00:44.507Z,18.02
2023-04-16T20:03:11.354Z,16.98
2023-04-16T20:05:40.993Z,17.52
2023-04-16T20:08:07.618Z,18.08
2023-04-16T20:10:34.418Z,18.13
2023-04-16T20:13:01.259Z,16.27
2023-04-16T20:15:27.909Z,17.35
2023-04-16T20:17:56.110Z,17.15
2023-04-16T20:20:23.723Z,18.17
2023-04-16T20:22:51.492Z,17.58
2023-04-16T20:25:21.598Z,17.88
2023-04-16T20:27:51.548Z,17.45
2023-04-16T20:30:29.106Z,18.65
2023-04-16T20:32:56.496Z,18.38
2023-04-16T20:35:23.261Z,17.83
2023-04-16T20:37:49.879Z,18.92
2023-04-16T20:40:16.534Z,17.67
2023-04-16T20:42:46.106Z,18.20
2023-04-16T20:45:12.995Z,18.50
2023-04-16T20:47:39.668Z,19.15
2023-04-16T20:50:07.303Z,19.55
2023-04-16T20:52:34.011Z,19.90
2023-04-16T20:55:03.235Z,19.00
2023-04-16T20:57:31.933Z,19.17
2023-04-16T20:59:58.674Z,20.42
2023-04-16T21:02:25.635Z,19.92
2023-04-16T21:04:52.533Z,20.70
2023-04-16T21:07:19.201Z,20.58
2023-04-16T21:09:45.914Z,20.23
2023-04-16T21:12:12.514Z,19.50
2023-04-16T21:14:39.078Z,21.10
2023-04-16T21:17:05.843Z,19.30
2023-04-16T21:19:33.004Z,19.48
2023-04-16T21:21:59.653Z,21.55
2023-04-16T21:24:26.201Z,21.85
2023-04-16T21:26:52.879Z,20.77
2023-04-16T21:29:19.464Z,23.20
2023-04-16T21:31:46.794Z,21.95
2023-04-16T21:34:13.532Z,21.77
2023-04-16T21:36:40.094Z,21.50
2023-04-16T21:39:06.992Z,22.15
2023-04-16T21:41:33.801Z,20.83
2023-04-16T21:44:00.644Z,23.25
2023-04-16T21:46:27.852Z,21.55
2023-04-16T21:48:55.907Z,22.95
2023-04-16T21:51:29.141Z,21.63
2023-04-16T21:53:57.700Z,22.50
2023-04-16T21:56:25.022Z,22.73
2023-04-16T21:58:51.735Z,23.10
2023-04-16T22:01:18.462Z,20.85
2023-04-16T22:03:47.014Z,23.42
2023-04-16T22:06:14.204Z,20.10
2023-04-16T22:08:40.856Z,17.85
2023-04-16T22:11:07.535Z,20.80
2023-04-16T22:13:36.518Z,20.25
2023-04-16T22:16:03.798Z,15.85
2023-04-16T22:18:33.560Z,20.48
2023-04-16T22:21:00.757Z,20.02
2023-04-16T22:23:27.491Z,20.60
2023-04-16T22:25:56.130Z,20.15
2023-04-16T22:28:23.121Z,21.38
2023-04-16T22:30:50.910Z,18.02
2023-04-16T22:33:18.467Z,18.60
2023-04-16T22:35:45.569Z,18.30
2023-04-16T22:38:12.192Z,21.40
2023-04-16T22:40:38.724Z,19.10
2023-04-16T22:43:05.748Z,17.77
2023-04-16T22:45:32.305Z,20.17
2023-04-16T22:47:59.084Z,18.75
2023-04-16T22:50:25.800Z,18.80
2023-04-16T22:52:52.429Z,18.33
2023-04-16T22:55:19.176Z,22.27
2023-04-16T22:57:45.972Z,19.45
2023-04-16T23:00:16.762Z,22.08
2023-04-16T23:02:44.339Z,20.95
2023-04-16T23:05:11.768Z,21.63
2023-04-16T23:07:38.809Z,22.67
2023-04-16T23:10:06.228Z,20.88
2023-04-16T23:12:33.018Z,21.75
2023-04-16T23:15:00.565Z,21.02
2023-04-16T23:17:28.042Z,21.35
2023-04-16T23:19:54.844Z,21.80
2023-04-16T23:22:21.508Z,20.15
2023-04-16T23:24:48.111Z,22.00
2023-04-16T23:27:14.859Z,22.92
2023-04-16T23:29:41.545Z,23.35
2023-04-16T23:32:08.175Z,22.17
2023-04-16T23:34:35.167Z,22.83
2023-04-16T23:37:01.808Z,23.50
2023-04-16T23:39:28.475Z,21.45
2023-04-16T23:41:55.636Z,23.95
2023-04-16T23:44:22.542Z,22.90
2023-04-16T23:46:49.144Z,22.52
2023-04-16T23:49:17.172Z,20.30
2023-04-16T23:51:43.880Z,21.75
2023-04-16T23:54:10.650Z,25.40
2023-04-16T23:56:37.714Z,20.58
2023-04-16T23:59:04.615Z,20.58
